Airfield :







YOU CAN JOIN US ON...

 
LOGIN :

Register | Disclaimer

   EN    FR    IT 

 









Legend :    VFR   Marginal VFR   IFR   Intensive IFR   Very Intensive IFR
Visi :
Ceiling :
>= 8 km
>= 3000ft
5 to 8 km
1000 to 3000 ft
1500m to 5 km
500 to 1000 ft
800 to 1500m
200 to 500 ft
< 800m
< 200 ft
Symbols :   Thunderstorms  Fog  Heavy snow  Heavy precipitations  Wind > 20 kt






- Airport Elevation : 108 ft
- IATA code : YGP


CYGP - Gaspé

CURRENT METAR :
  • 071500Z 26008KT 250V320 15SM -RA SCT050 BKN080 OVC220 26/21 A2976 RMK SC4AC3CI1 SLP078 DENSITY ALT 1700FT

EXPIRED METARs :
  • 071400Z 29007KT 15SM FEW140 SCT180 BKN240 27/21 A2974 RMK AC1AC2CI4 SLP074 DENSITY ALT 1800FT
  • 071300Z 26005KT 230V300 15SM FEW140 FEW180 BKN240 26/20 A2976 RMK AC1AC2CI4 AC TR PRESFR SLP079 DENSITY ALT 1700FT

TAF TAF CYGP
Valid from the 07 at 14:00 until the 08 at 02:00 UTC


071340Z 0714/0802 26008KT P6SM FEW040 SCT140
FM071500 27010G20KT P6SM -RA BKN070 OVC110
TEMPO 0715/0717 5SM SHRA BR BKN020 OVC050
FM071700 24012G22KT P6SM SCT030 BKN100 OVC180
FM071900 28012G22KT P6SM SCT050
FM080000 29008G18KT P6SM FEW050 RMK NXT FCST BY 072000Z
CZUL FIR / North America



MET'MAP, your aeronautical weather chart ! - Copyright ORBIFLY December 2007 - Disclaimer

ORBIFLY MET'MAP TEAM :

Programming & Development : Alexandra Zaïnal
Original concept : Baudouin d'Aumeries
Technical & hardware support : Manuel Goepfert
Assistance : Marc-Olivier Méhu




SOURCES & CREDITS :

   NOAA